Latest Coastal Weather Observations for Albion Park

IDN60701

Issued at 8:35 pm EDT Friday 24 October 2014 (issued every 10 minutes, with the page automatically refreshed every 10 minutes)

About coastal observations | Map of coastal stations | Coastal observations for NSW | Marine services | Other Formats
Station Details ID: 068241 Name: WOLLONGONG AIRPORT Lat: -34.56 Lon: 150.79 Height: 8.0 m
Data from the previous 72 hours. | See also: Recent months at Albion Park
Date/Time
EDT
Temp

°C
Wind Pressure Rain
since 9am
mm
Weather Cloud Vis
km
Sea
Height
m
Swell
Dir
 
Speed
knots
Gust
knots
hPa Trend Height
m
Period
s
Dir
24/08:30pm 20.1 W 4 6 1013.0 - 0.0 - Partly cloudy 10 - - - -
24/08:00pm 20.7 NE 6 8 1013.0 - 0.0 - - 10 - - - -
24/07:30pm 20.9 NE 7 9 1013.0 - 0.0 - - 10 - - - -
24/07:00pm 21.1 NE 8 10 1012.9 - 0.0 - - 10 - - - -
24/06:30pm 21.1 NE 10 14 1012.6 - 0.0 - - 10 - - - -
24/06:00pm 21.8 ENE 12 17 1012.6 - 0.0 - - 10 - - - -
24/05:30pm 21.8 ENE 10 15 1012.7 - 0.0 - - 10 - - - -
24/05:00pm 22.2 ENE 12 15 1012.8 - 0.0 - - 10 - - - -
24/04:30pm 22.9 ENE 10 13 1012.9 - 0.0 - - 10 - - - -
24/04:00pm 22.8 ENE 12 16 1013.3 - 0.0 - - 10 - - - -
24/03:30pm 22.8 ENE 13 16 1013.8 - 0.0 - - 10 - - - -
24/03:00pm 22.4 ENE 14 18 1014.2 - 0.0 - - 10 - - - -
24/02:30pm 23.2 NE 14 18 1014.6 - 0.0 - - 10 - - - -
24/02:00pm 22.7 NE 15 20 1015.1 - 0.0 - - 10 - - - -
24/01:30pm 23.0 NE 13 17 1015.7 - 0.0 - - 10 - - - -
24/01:00pm 23.5 NE 14 18 1016.1 - 0.0 - - 10 - - - -
24/12:30pm 23.2 NE 12 16 1016.7 - 0.0 - - 10 - - - -
24/12:00pm 23.1 NE 11 15 1017.4 - 0.0 - Mostly clear 10 - - - -
24/11:30am 22.4 NE 11 13 1018.2 - 0.0 - Partly cloudy 10 - - - -
24/11:00am 21.8 NE 7 9 1018.8 - 0.0 - Partly cloudy 10 - - - -
24/10:30am 21.8 E 9 11 1018.7 - 0.0 - Partly cloudy 10 - - - -
24/10:00am 21.7 E 8 11 1018.4 - 0.0 - Partly cloudy 10 - - - -
24/09:30am 21.3 E 4 7 1019.6 - 0.0 - Cloudy 10 - - - -
24/09:00am 19.8 ESE 3 4 1019.3 - 0.0 - Cloudy 10 - - - -
24/08:30am 19.0 CALM 0 0 1018.9 - 0.0 - - 10 - - - -
24/08:00am 17.8 W 5 7 1018.9 - 0.0 - - 10 - - - -
24/07:30am 17.2 W 4 7 1018.7 - 0.0 - - 10 - - - -
24/07:00am 16.7 SSW 3 5 1018.8 - 0.0 - - 10 - - - -
24/06:30am 16.6 SSE 5 7 1019.0 - 0.0 - Partly cloudy 10 - - - -
24/06:00am 16.6 W 8 9 1019.9 - 0.0 - Cloudy 10 - - - -
24/05:30am 17.3 W 5 7 1019.1 - 0.0 - - 10 - - - -
24/05:00am 17.0 WNW 4 8 1019.8 - 0.0 - Partly cloudy 10 - - - -
24/04:30am 17.3 W 3 5 1019.6 - 0.0 - - 10 - - - -
24/04:00am 17.9 E 7 9 1019.2 - 0.0 - Partly cloudy 10 - - - -
24/03:30am 17.6 WSW 3 5 1019.9 - 0.0 - Partly cloudy 10 - - - -
24/03:00am 17.3 W 9 11 1019.5 - 0.0 - Cloudy 10 - - - -
24/02:32am 17.4 WSW 6 8 1019.0 - 0.0 - Partly cloudy 10 - - - -
24/02:30am 17.5 W 6 8 1019.0 - 0.0 - Partly cloudy 10 - - - -
24/02:10am 17.8 W 5 6 1019.3 - 0.0 - Partly cloudy 10 - - - -
24/02:00am 17.6 W 5 6 1019.1 - 0.0 - Partly cloudy 10 - - - -
24/01:30am 18.5 N 7 9 1018.9 - 0.0 - Partly cloudy 10 - - - -
24/01:00am 18.3 NNE 10 12 1020.2 - 0.0 - Partly cloudy 10 - - - -
24/12:30am 17.5 CALM 0 3 1021.6 - 0.0 - Partly cloudy 10 - - - -
24/12:28am 17.6 SSW 1 3 1021.7 - 0.0 - Partly cloudy 10 - - - -
24/12:00am 17.2 SSW 5 6 1021.7 - 0.0 - Cloudy 10 - - - -
 
Date/Time
EDT
Temp

°C
Wind Pressure Rain
since 9am
mm
Weather Cloud Vis
km
Sea
Height
m
Swell
Dir
 
Speed
knots
Gust
knots
hPa Trend Height
m
Period
s
Dir
23/11:41pm 17.2 SSW 3 5 1021.4 - 0.0 - Partly cloudy 10 - - - -
23/11:30pm 17.7 SSW 4 5 1021.3 - 0.0 - Partly cloudy 10 - - - -
23/11:00pm 17.7 SSW 1 3 1021.3 - 0.0 - Partly cloudy 10 - - - -
23/10:30pm 17.5 CALM 0 0 1020.9 - 0.0 - - 10 - - - -
23/10:00pm 17.5 SSW 1 3 1020.6 - 0.0 - - 10 - - - -
23/09:30pm 17.1 SSW 5 6 1020.4 - 0.0 - - 10 - - - -
23/09:00pm 17.2 S 1 4 1020.0 - 0.0 - - 10 - - - -
23/08:30pm 17.9 SSE 3 5 1019.9 - 0.0 - - 10 - - - -
23/08:00pm 19.0 CALM 0 0 1019.4 - 0.0 - - 10 - - - -
23/07:48pm 19.2 CALM 0 0 1019.3 - 0.0 - Partly cloudy 10 - - - -
23/07:31pm 19.5 CALM 0 4 1019.1 - 0.0 - Partly cloudy 10 - - - -
23/07:30pm 19.7 CALM 0 0 1019.2 - 0.0 - Partly cloudy 10 - - - -
23/07:00pm 20.5 ENE 4 6 1019.0 - 0.0 - - 10 - - - -
23/06:30pm 21.0 E 8 9 1018.3 - 0.0 - - 10 - - - -
23/06:00pm 21.5 E 6 7 1017.9 - 0.0 - - 10 - - - -
23/05:30pm 22.2 NE 6 8 1017.3 - 0.0 - - 10 - - - -
23/05:00pm 22.4 NNE 8 11 1017.2 - 0.0 - - 10 - - - -
23/04:30pm 23.5 NE 8 10 1016.9 - 0.0 - - 10 - - - -
23/04:00pm 24.0 E 9 12 1016.6 - 0.0 - - 10 - - - -
23/03:30pm 24.8 E 9 13 1016.6 - 0.0 - - 10 - - - -
23/03:00pm 24.9 ESE 11 16 1016.3 - 0.0 - - 10 - - - -
23/02:30pm 26.3 E 8 12 1016.4 - 0.0 - - 10 - - - -
23/02:00pm 26.4 E 8 10 1016.6 - 0.0 - - 10 - - - -
23/01:30pm 25.7 E 10 14 1016.8 - 0.0 - - 10 - - - -
23/01:00pm 26.2 E 8 10 1017.0 - 0.0 - - 10 - - - -
23/12:30pm 26.1 E 7 10 1017.0 - 0.0 - - 10 - - - -
23/12:00pm 25.6 NE 9 11 1017.3 - 0.0 - - 10 - - - -
23/11:30am 25.4 ENE 6 9 1017.5 - 0.0 - - 10 - - - -
23/11:00am 25.1 NE 5 7 1017.6 - 0.0 - - 10 - - - -
23/10:30am 24.2 ENE 5 7 1017.6 - 0.0 - - 10 - - - -
23/10:00am 23.0 NNW 3 4 1017.7 - 0.0 - - 10 - - - -
23/09:30am 20.9 NW 1 4 1017.6 - 0.0 - - 10 - - - -
23/09:00am 19.4 NNE 3 4 1017.7 - 0.0 - - 10 - - - -
23/08:30am 18.7 NNE 3 5 1017.5 - 0.0 - - 10 - - - -
23/08:00am 16.7 CALM 0 0 1017.4 - 0.0 - - 10 - - - -
23/07:30am 14.2 CALM 0 0 1017.4 - 0.0 - - 10 - - - -
23/07:00am 12.3 W 2 5 1017.5 - 0.0 - - 10 - - - -
23/06:30am 10.8 W 1 5 1017.3 - 0.0 - - 10 - - - -
23/06:00am 10.8 CALM 0 0 1016.9 - 0.0 - - 10 - - - -
23/05:30am 11.1 CALM 0 0 1016.6 - 0.0 - - 10 - - - -
23/05:00am 11.1 W 4 6 1016.5 - 0.0 - - 10 - - - -
23/04:30am 11.3 CALM 0 0 1016.8 - 0.0 - - 10 - - - -
23/04:00am 11.3 CALM 0 0 1016.7 - 0.0 - - 10 - - - -
23/03:30am 11.4 CALM 0 0 1017.0 - 0.0 - - 10 - - - -
23/03:00am 11.4 CALM 0 0 1017.3 - 0.0 - - 10 - - - -
23/02:30am 11.8 CALM 0 0 1017.6 - 0.0 - - 10 - - - -
23/02:00am 11.9 CALM 0 0 1018.1 - 0.0 - - 10 - - - -
23/01:30am 12.2 W 2 4 1018.5 - 0.0 - - 10 - - - -
23/01:00am 12.3 CALM 0 0 1019.0 - 0.0 - - 10 - - - -
23/12:30am 12.4 W 1 3 1019.4 - 0.0 - - 10 - - - -
23/12:00am 12.7 CALM 0 0 1019.7 - 0.0 - - 10 - - - -
 
Date/Time
EDT
Temp

°C
Wind Pressure Rain
since 9am
mm
Weather Cloud Vis
km
Sea
Height
m
Swell
Dir
 
Speed
knots
Gust
knots
hPa Trend Height
m
Period
s
Dir
22/11:30pm 13.0 CALM 0 0 1020.1 - 0.0 - - 10 - - - -
22/11:00pm 13.8 W 4 5 1020.2 - 0.0 - - 10 - - - -
22/10:30pm 14.0 WNW 4 5 1020.4 - 0.0 - - 10 - - - -
22/10:00pm 14.2 CALM 0 0 1020.3 - 0.0 - - 10 - - - -
22/09:30pm 14.6 WNW 4 5 1020.3 - 0.0 - - 10 - - - -
22/09:00pm 15.0 WNW 1 5 1020.2 - 0.0 - - 10 - - - -
22/08:30pm 15.9 NW 1 4 1019.9 - 0.0 - - 10 - - - -
22/08:00pm 17.8 NNW 3 5 1019.6 - 0.0 - - 10 - - - -
22/07:30pm 18.6 NNE 7 10 1019.5 - 0.0 - - 10 - - - -
22/07:00pm 19.0 NNE 9 13 1019.4 - 0.0 - - 10 - - - -
22/06:30pm 19.4 NNE 11 17 1019.4 - 0.0 - - 10 - - - -
22/06:00pm 19.8 NNE 13 19 1019.5 - 0.0 - - 10 - - - -
22/05:30pm 20.2 NE 12 18 1019.7 - 0.0 - - 10 - - - -
22/05:00pm 20.5 NE 11 20 1019.9 - 0.0 - - 10 - - - -
22/04:30pm 20.6 NE 13 20 1020.0 - 0.0 - - 10 - - - -
22/04:00pm 20.7 NE 14 20 1020.2 - 0.0 - - 10 - - - -
22/03:30pm 20.4 NE 16 23 1020.4 - 0.0 - - 10 - - - -
22/03:00pm 20.8 NE 15 21 1020.8 - 0.0 - - 10 - - - -
22/02:30pm 20.4 NE 19 25 1021.2 - 0.0 - - 10 - - - -
22/02:00pm 20.5 NE 16 22 1022.0 - 0.0 - - 10 - - - -
22/01:30pm 21.1 NE 15 19 1022.5 - 0.0 - - 10 - - - -
22/01:09pm 21.3 ENE 19 23 1022.8 - 0.0 - - 10 - - - -
22/01:00pm 22.7 N 8 13 1023.0 - 0.0 - - 10 - - - -
22/12:30pm 21.7 N 12 17 1023.6 - 0.0 - - 10 - - - -
22/12:00pm 21.2 N 12 17 1024.3 - 0.0 - - 10 - - - -
22/11:30am 21.0 N 12 17 1024.9 - 0.0 - - 10 - - - -
22/11:00am 20.7 N 10 19 1025.4 - 0.0 - - 10 - - - -
22/10:30am 19.6 N 11 16 1025.8 - 0.0 - Partly cloudy 10 - - - -
22/10:00am 18.9 N 12 19 1026.2 - 0.0 - Partly cloudy 10 - - - -
22/09:30am 18.3 N 13 19 1026.4 - 0.0 - Partly cloudy 10 - - - -
22/09:00am 17.5 N 11 15 1026.6 - 0.0 - Partly cloudy 10 - - - -
22/08:30am 17.2 N 12 17 1026.9 - 0.0 - - 10 - - - -
22/08:00am 15.9 NNW 7 9 1027.1 - 0.0 - Partly cloudy 10 - - - -
22/07:30am 14.5 NNW 5 8 1027.2 - 0.0 - Partly cloudy 10 - - - -
22/07:00am 13.3 NW 5 5 1027.3 - 0.0 - Cloudy 10 - - - -
22/06:30am 12.1 NW 5 6 1027.2 - 0.0 - Partly cloudy 10 - - - -
22/06:00am 11.5 W 6 8 1027.1 - 0.0 - Partly cloudy 10 - - - -
22/05:30am 12.2 CALM 0 0 1027.1 - 0.0 - Cloudy 10 - - - -
22/05:00am 12.2 CALM 0 0 1027.1 - 0.0 - Cloudy 10 - - - -
22/04:30am 11.9 CALM 0 0 1027.4 - 0.0 - Cloudy 10 - - - -
22/04:00am 11.7 W 3 5 1027.6 - 0.0 - Cloudy 10 - - - -
22/03:30am 11.3 W 4 5 1027.9 - 0.0 - Cloudy 10 - - - -
22/03:00am 11.4 CALM 0 0 1028.3 - 0.0 - Partly cloudy 10 - - - -
22/02:30am 11.9 CALM 0 0 1028.6 - 0.0 - Partly cloudy 10 - - - -
22/02:00am 12.9 CALM 0 0 1028.9 - 0.0 - Cloudy 10 - - - -
22/01:30am 13.8 W 2 4 1029.3 - 0.0 - Cloudy 10 - - - -
22/01:00am 14.1 W 2 3 1029.9 - 0.0 - Cloudy 10 - - - -
22/12:30am 14.9 NNW 4 5 1030.5 - 0.0 - Cloudy 10 - - - -
22/12:00am 14.8 NW 2 4 1030.8 - 0.0 - Cloudy 10 - - - -
 
Date/Time
EDT
Temp

°C
Wind Pressure Rain
since 9am
mm
Weather Cloud Vis
km
Sea
Height
m
Swell
Dir
 
Speed
knots
Gust
knots
hPa Trend Height
m
Period
s
Dir
21/11:30pm 14.2 W 2 4 1030.9 - 0.0 - Cloudy 10 - - - -
21/11:00pm 14.2 W 3 4 1031.1 - 0.0 - Partly cloudy 10 - - - -
21/10:30pm 14.2 W 4 6 1031.3 - 0.0 - Partly cloudy 10 - - - -
21/10:00pm 14.3 W 3 4 1031.3 - 0.0 - Partly cloudy 10 - - - -
21/09:30pm 14.5 WNW 4 5 1031.3 - 0.0 - Cloudy 10 - - - -
21/09:00pm 14.7 W 6 6 1031.2 - 0.0 - Cloudy 10 - - - -

Other Formats:

Comma delimited format used in spreadsheet applications
http://www.bom.gov.au/fwo/IDN60701/IDN60701.95748.axf

JavaScript Object Notation format (JSON) in row-major order
http://www.bom.gov.au/fwo/IDN60701/IDN60701.95748.json